Time;durP1;ratioP1;P1;durP2;ratioP2;P2;SDS_P1;SDS_P2;PMS_P1;PMS_P2;Temp;Humidity;BMP_temperature;BMP_pressure;BME280_temperature;BME280_humidity;BME280_pressure;Samples;Min_cycle;Max_cycle;Signal;HPM_P1;HPM_P2
2022/11/20 00:00:46;;;;;;;11.70;6.23;;;;;;;-8.09;100.00;96076.13;10412246;28;20300;-76
2022/11/20 00:05:47;;;;;;;14.23;6.27;;;;;;;-8.05;100.00;96079.41;10411937;28;20185;-75
2022/11/20 00:10:47;;;;;;;11.97;5.90;;;;;;;-8.07;100.00;96078.63;10411698;28;20191;-75
2022/11/20 00:15:47;;;;;;;12.57;6.20;;;;;;;-8.13;100.00;96083.94;10411908;28;20200;-75
2022/11/20 00:20:48;;;;;;;12.63;5.70;;;;;;;-8.19;100.00;96072.31;10411718;28;20221;-75
2022/11/20 00:25:48;;;;;;;8.97;3.60;;;;;;;-8.26;100.00;96074.22;10411137;28;20276;-75
2022/11/20 00:30:49;;;;;;;8.70;4.40;;;;;;;-8.32;100.00;96079.53;10411095;28;20233;-75
2022/11/20 00:35:49;;;;;;;12.13;6.17;;;;;;;-8.39;100.00;96078.13;10410251;28;20668;-76
2022/11/20 00:40:55;;;;;;;11.33;5.50;;;;;;;-8.41;100.00;96079.88;10409901;28;20255;-75
2022/11/20 00:45:57;;;;;;;10.73;5.67;;;;;;;-8.52;100.00;96077.78;10409727;28;20196;-75
2022/11/20 00:50:58;;;;;;;9.47;4.97;;;;;;;-8.47;100.00;96082.69;10410171;28;20196;-75
2022/11/20 00:56:04;;;;;;;9.07;4.60;;;;;;;-8.46;100.00;96086.88;10409258;28;20208;-75
2022/11/20 01:01:11;;;;;;;6.27;3.73;;;;;;;-8.47;100.00;96080.16;10410006;28;20232;-75
2022/11/20 01:06:16;;;;;;;7.40;3.80;;;;;;;-8.46;100.00;96081.81;10409803;28;20241;-76
2022/11/20 01:11:19;;;;;;;8.43;4.17;;;;;;;-8.47;100.00;96090.31;10408693;28;21063;-76
2022/11/20 01:16:22;;;;;;;6.77;3.63;;;;;;;-8.41;100.00;96087.50;10408979;28;20342;-75
2022/11/20 01:21:23;;;;;;;5.60;2.73;;;;;;;-8.36;100.00;96088.19;10410242;28;20711;-75
2022/11/20 01:26:29;;;;;;;6.37;3.27;;;;;;;-8.41;100.00;96077.34;10408992;28;20299;-75
2022/11/20 01:31:32;;;;;;;4.10;3.07;;;;;;;-8.34;100.00;96076.25;10409164;28;20232;-75
2022/11/20 01:36:35;;;;;;;5.07;2.93;;;;;;;-8.44;100.00;96078.34;10409012;28;20251;-76
2022/11/20 01:46:59;;;;;;;5.63;3.27;;;;;;;-8.34;100.00;96061.00;10416124;28;20192;-75
2022/11/20 01:52:06;;;;;;;5.43;2.20;;;;;;;-8.40;100.00;96068.84;10416508;28;20230;-75
2022/11/20 01:57:08;;;;;;;4.10;3.00;;;;;;;-8.53;100.00;96054.97;10415350;28;20294;-75
2022/11/20 02:02:09;;;;;;;4.17;2.37;;;;;;;-8.49;100.00;96047.19;10414506;28;20633;-75
2022/11/20 02:07:10;;;;;;;5.10;2.43;;;;;;;-8.45;100.00;96053.00;10414776;28;20192;-75
2022/11/20 02:13:42;;;;;;;2.73;2.37;;;;;;;-8.45;100.00;96050.47;10415155;28;20199;-75
2022/11/20 02:17:31;;;;;;;2.97;2.10;;;;;;;-8.37;100.00;96048.41;10414562;28;20693;-75
2022/11/20 02:22:39;;;;;;;4.10;2.20;;;;;;;-8.43;100.00;96041.03;10396794;28;20192;-75
2022/11/20 02:27:40;;;;;;;1.27;1.20;;;;;;;-8.53;100.00;96038.06;10413624;28;20279;-75
2022/11/20 02:32:40;;;;;;;2.93;1.77;;;;;;;-8.53;100.00;96034.66;10414620;28;20356;-76
2022/11/20 02:37:40;;;;;;;4.50;2.47;;;;;;;-8.57;100.00;96038.19;10414794;28;20234;-75
2022/11/20 02:42:41;;;;;;;3.90;2.07;;;;;;;-8.58;100.00;96029.75;10415194;28;20195;-75
2022/11/20 02:47:41;;;;;;;1.80;1.63;;;;;;;-8.61;100.00;96033.22;10414893;28;20192;-75
2022/11/20 02:52:42;;;;;;;3.87;2.07;;;;;;;-8.59;100.00;96034.88;10413242;28;20195;-75
2022/11/20 02:57:42;;;;;;;4.67;2.87;;;;;;;-8.57;100.00;96039.03;10414276;28;20314;-75
2022/11/20 03:02:42;;;;;;;4.53;2.77;;;;;;;-8.52;100.00;96028.72;10413994;28;20192;-75
2022/11/20 03:07:43;;;;;;;5.07;3.10;;;;;;;-8.63;100.00;96022.31;10414693;28;20275;-75
2022/11/20 03:12:44;;;;;;;5.03;2.73;;;;;;;-8.70;100.00;96018.34;10414268;28;20191;-75
2022/11/20 03:17:44;;;;;;;5.53;2.90;;;;;;;-8.72;100.00;96012.50;10413357;28;20219;-75
2022/11/20 03:22:44;;;;;;;4.57;3.37;;;;;;;-8.69;100.00;96009.84;10414555;28;20743;-75
2022/11/20 03:27:45;;;;;;;6.17;3.50;;;;;;;-8.74;100.00;96011.72;10413733;28;20554;-75
2022/11/20 03:32:45;;;;;;;4.63;2.83;;;;;;;-8.76;100.00;96018.56;10417546;28;20289;-75
2022/11/20 03:37:46;;;;;;;5.20;2.63;;;;;;;-8.68;100.00;96013.19;10425003;28;20223;-74
2022/11/20 03:42:46;;;;;;;4.33;2.77;;;;;;;-8.73;100.00;96018.44;10443756;28;20203;-75
2022/11/20 03:47:47;;;;;;;5.40;2.37;;;;;;;-8.77;100.00;96022.00;10447500;28;20184;-74
2022/11/20 03:52:47;;;;;;;2.00;1.50;;;;;;;-8.72;100.00;96024.38;10431128;28;20534;-75
2022/11/20 03:57:47;;;;;;;4.40;2.80;;;;;;;-8.76;100.00;96016.03;10410450;28;20487;-76
2022/11/20 04:02:48;;;;;;;2.37;1.80;;;;;;;-8.72;100.00;96020.09;10411411;28;20254;-76
2022/11/20 04:07:48;;;;;;;4.70;2.57;;;;;;;-8.81;100.00;96012.84;10408599;28;20195;-76
2022/11/20 04:12:48;;;;;;;2.63;2.13;;;;;;;-8.75;100.00;96016.88;10407209;28;20219;-76
2022/11/20 04:17:49;;;;;;;4.70;3.10;;;;;;;-8.81;100.00;96006.03;10406760;28;20209;-75
2022/11/20 04:22:53;;;;;;;5.17;2.87;;;;;;;-8.80;100.00;96002.63;10407883;28;20201;-75
2022/11/20 04:27:53;;;;;;;4.37;3.40;;;;;;;-8.81;100.00;95992.53;10407856;28;20192;-74
2022/11/20 04:32:54;;;;;;;6.67;4.50;;;;;;;-8.88;100.00;95989.41;10405921;28;20677;-75
2022/11/20 04:37:54;;;;;;;4.80;2.57;;;;;;;-8.94;100.00;95979.47;10408097;28;20265;-75
2022/11/20 04:42:54;;;;;;;5.10;3.57;;;;;;;-8.89;100.00;95981.84;10407287;28;20267;-76
2022/11/20 04:47:55;;;;;;;10.30;5.17;;;;;;;-8.94;100.00;95986.25;10407999;28;20234;-75
2022/11/20 04:52:55;;;;;;;12.43;6.43;;;;;;;-8.99;100.00;95989.78;10406295;28;20202;-75
2022/11/20 04:57:56;;;;;;;11.47;5.47;;;;;;;-8.96;100.00;95986.28;10407491;28;20277;-75
2022/11/20 05:02:56;;;;;;;10.23;5.60;;;;;;;-8.98;100.00;95990.59;10408641;28;20187;-75
2022/11/20 05:07:57;;;;;;;8.27;4.73;;;;;;;-8.93;100.00;95990.44;10410321;28;20184;-76
2022/11/20 05:12:57;;;;;;;6.87;4.13;;;;;;;-8.88;100.00;95993.63;10410351;28;20188;-76
2022/11/20 05:17:58;;;;;;;8.23;3.73;;;;;;;-8.85;100.00;95986.75;10417140;28;20223;-76
2022/11/20 05:22:58;;;;;;;7.40;4.13;;;;;;;-8.83;100.00;95995.13;10418298;28;20198;-74
2022/11/20 05:27:59;;;;;;;11.47;4.60;;;;;;;-8.82;100.00;95995.94;10418402;28;20644;-74
2022/11/20 05:32:59;;;;;;;17.73;7.60;;;;;;;-8.83;100.00;95994.31;10417430;28;20232;-75
2022/11/20 05:37:59;;;;;;;10.47;5.73;;;;;;;-8.83;100.00;95984.97;10417767;28;20712;-74
2022/11/20 05:43:00;;;;;;;4.70;3.33;;;;;;;-8.67;100.00;95986.94;10417223;28;20552;-74
2022/11/20 05:48:01;;;;;;;13.93;7.00;;;;;;;-8.57;100.00;95982.31;10416209;28;20601;-75
2022/11/20 05:53:01;;;;;;;16.03;7.30;;;;;;;-8.67;100.00;95972.53;10415582;28;20193;-75
2022/11/20 05:58:01;;;;;;;15.03;7.77;;;;;;;-8.73;100.00;95975.28;10416692;28;20219;-74
2022/11/20 06:03:02;;;;;;;12.50;6.20;;;;;;;-8.64;100.00;95974.13;10415374;28;20659;-75
2022/11/20 06:08:02;;;;;;;12.10;6.70;;;;;;;-8.70;100.00;95976.91;10416381;28;20188;-75
2022/11/20 06:13:03;;;;;;;8.53;5.07;;;;;;;-8.69;100.00;95964.16;10414923;28;20668;-75
2022/11/20 06:18:03;;;;;;;10.20;4.77;;;;;;;-8.59;100.00;95964.63;10415931;28;20217;-75
2022/11/20 06:23:03;;;;;;;10.13;4.67;;;;;;;-8.70;100.00;95954.88;10415820;28;20196;-75
2022/11/20 06:28:04;;;;;;;11.13;5.97;;;;;;;-8.59;100.00;95951.91;10414872;28;20272;-75
2022/11/20 06:33:04;;;;;;;16.47;8.30;;;;;;;-8.55;100.00;95961.09;10415425;28;20240;-75
2022/11/20 06:38:04;;;;;;;17.63;9.17;;;;;;;-8.48;100.00;95966.78;10415110;28;20723;-75
2022/11/20 06:43:05;;;;;;;12.10;6.70;;;;;;;-8.43;100.00;95957.22;10414630;28;20560;-74
2022/11/20 06:48:05;;;;;;;15.40;7.50;;;;;;;-8.45;100.00;95951.41;10413917;28;20212;-75
2022/11/20 06:53:06;;;;;;;13.43;6.20;;;;;;;-8.49;100.00;95952.41;10414365;28;20234;-75
2022/11/20 06:58:06;;;;;;;13.20;6.13;;;;;;;-8.55;100.00;95950.09;10414697;28;20768;-75
2022/11/20 07:03:08;;;;;;;11.77;5.70;;;;;;;-8.64;100.00;95941.94;10413993;28;20206;-75
2022/11/20 07:08:08;;;;;;;11.13;5.47;;;;;;;-8.59;100.00;95948.56;10414136;28;20279;-74
2022/11/20 07:13:09;;;;;;;16.73;8.10;;;;;;;-8.42;100.00;95951.25;10414146;28;20271;-75
2022/11/20 07:18:09;;;;;;;15.93;8.23;;;;;;;-8.23;100.00;95948.00;10412540;28;20718;-75
2022/11/20 07:23:10;;;;;;;22.67;9.90;;;;;;;-8.16;100.00;95942.59;10413638;28;20566;-75
2022/11/20 07:28:10;;;;;;;20.87;10.10;;;;;;;-7.92;100.00;95942.47;10412897;28;20207;-75
2022/11/20 07:33:11;;;;;;;19.63;9.53;;;;;;;-7.44;100.00;95937.94;10411628;28;20778;-75
2022/11/20 07:38:11;;;;;;;17.23;9.10;;;;;;;-6.76;100.00;95929.88;10410310;28;20224;-74
2022/11/20 07:43:12;;;;;;;21.10;9.90;;;;;;;-6.37;100.00;95923.81;10412302;28;20662;-75
2022/11/20 07:48:12;;;;;;;18.73;8.53;;;;;;;-5.72;100.00;95902.81;10413028;28;20189;-75
2022/11/20 07:53:13;;;;;;;15.23;7.50;;;;;;;-5.35;100.00;95898.38;10412359;28;20188;-75
2022/11/20 07:58:14;;;;;;;13.20;7.10;;;;;;;-4.73;100.00;95880.59;10411374;28;20240;-75
2022/11/20 08:03:14;;;;;;;11.17;6.63;;;;;;;-4.77;100.00;95863.81;10412055;28;20660;-74
2022/11/20 08:08:14;;;;;;;11.00;6.10;;;;;;;-4.19;100.00;95870.78;10411678;28;20188;-75
2022/11/20 08:18:34;;;;;;;11.90;6.27;;;;;;;-3.21;99.71;95842.09;10411587;28;20281;-76
2022/11/20 08:23:34;;;;;;;11.83;6.43;;;;;;;-3.13;96.67;95820.19;10410974;28;20279;-75
2022/11/20 08:28:34;;;;;;;9.40;6.13;;;;;;;-3.09;95.51;95824.22;10411266;28;20184;-75
2022/11/20 08:33:35;;;;;;;7.27;4.17;;;;;;;-2.72;94.70;95813.41;10410832;28;20386;-75
2022/11/20 08:38:35;;;;;;;8.27;4.97;;;;;;;-2.73;92.32;95796.38;10410675;28;20227;-73
2022/11/20 08:43:36;;;;;;;6.67;4.00;;;;;;;-2.30;89.71;95777.41;10398801;28;20188;-73
2022/11/20 08:48:36;;;;;;;8.33;5.20;;;;;;;-2.23;89.90;95776.91;10410081;28;20193;-73
2022/11/20 08:53:37;;;;;;;7.20;4.30;;;;;;;-1.46;88.75;95768.34;10409902;28;20263;-74
2022/11/20 08:58:38;;;;;;;7.17;4.77;;;;;;;-1.70;85.72;95724.63;10409632;28;20212;-74
2022/11/20 09:03:38;;;;;;;7.70;4.30;;;;;;;-0.75;84.54;95722.22;10409971;28;20184;-75
2022/11/20 09:08:39;;;;;;;9.37;4.40;;;;;;;-1.50;82.22;95693.25;10409249;28;20192;-75
2022/11/20 09:13:39;;;;;;;5.90;3.80;;;;;;;-0.13;81.05;95692.78;10391958;28;20752;-76
2022/11/20 09:18:40;;;;;;;40.60;17.07;;;;;;;-0.02;79.22;95679.91;10409908;28;20231;-76
2022/11/20 09:23:40;;;;;;;224.17;72.37;;;;;;;-0.08;80.17;95698.38;10391800;28;20228;-76
2022/11/20 09:28:41;;;;;;;47.20;19.97;;;;;;;1.05;77.58;95680.19;10410263;28;20956;-76
2022/11/20 09:33:42;;;;;;;7.33;4.97;;;;;;;0.46;75.27;95667.69;10392055;28;20246;-76
2022/11/20 09:38:43;;;;;;;16.23;9.30;;;;;;;0.96;71.59;95621.59;10409660;28;20224;-77
2022/11/20 09:44:20;;;;;;;12.23;7.73;;;;;;;2.20;65.42;95575.22;10409812;28;20604;-77
2022/11/20 09:49:33;;;;;;;5.23;3.70;;;;;;;0.54;74.08;95729.78;10409638;28;20196;-76
2022/11/20 09:54:38;;;;;;;5.40;3.27;;;;;;;-1.59;92.17;95907.03;10391531;28;20624;-77
2022/11/20 09:59:43;;;;;;;4.97;3.90;;;;;;;-2.34;100.00;95913.53;10392111;28;20232;-77
2022/11/20 10:04:49;;;;;;;5.60;4.10;;;;;;;-2.47;100.00;95893.91;10398703;28;20193;-77
2022/11/20 10:09:53;;;;;;;6.43;3.80;;;;;;;-2.12;100.00;95891.66;10399268;28;20192;-77
2022/11/20 10:14:59;;;;;;;7.23;4.17;;;;;;;-1.42;100.00;95869.97;10398706;28;20208;-77
2022/11/20 10:20:14;;;;;;;5.20;3.70;;;;;;;-1.46;100.00;95847.97;10398504;28;20723;-77
2022/11/20 10:25:18;;;;;;;5.83;3.50;;;;;;;-1.19;100.00;95827.28;10415918;28;20188;-77
2022/11/20 10:30:21;;;;;;;6.70;4.30;;;;;;;0.00;100.00;95795.66;10415865;28;20698;-78
2022/11/20 10:35:24;;;;;;;4.67;3.13;;;;;;;1.18;95.04;95761.72;10415493;28;20219;-79
2022/11/20 10:40:32;;;;;;;4.73;3.20;;;;;;;1.32;92.98;95769.22;10415450;28;20228;-79
2022/11/20 10:45:50;;;;;;;3.13;2.63;;;;;;;0.83;90.76;95767.94;10397304;28;20196;-79
2022/11/20 10:50:59;;;;;;;5.20;3.40;;;;;;;0.05;94.45;95808.19;10396861;28;20264;-78
2022/11/20 10:56:15;;;;;;;6.00;3.30;;;;;;;0.30;96.39;95813.13;10414264;28;20226;-79
2022/11/20 11:01:23;;;;;;;3.33;2.60;;;;;;;-0.90;100.00;95835.53;10397164;28;20219;-78
2022/11/20 11:06:23;;;;;;;7.03;4.67;;;;;;;-0.69;100.00;95840.06;10414250;28;20188;-78
2022/11/20 11:11:29;;;;;;;9.40;5.22;;;;;;;-0.45;100.00;95852.94;10414594;28;20196;-78
2022/11/20 11:16:29;;;;;;;6.57;4.10;;;;;;;-0.94;100.00;95841.81;10396233;28;20569;-78
2022/11/20 11:21:29;;;;;;;11.17;5.83;;;;;;;-0.96;100.00;95848.81;10413860;28;20227;-78
2022/11/20 11:26:30;;;;;;;12.20;6.37;;;;;;;-1.35;100.00;95858.31;10395843;28;20338;-78
2022/11/20 11:31:34;;;;;;;7.87;4.87;;;;;;;-1.64;100.00;95847.44;10395966;28;20708;-78
2022/11/20 11:36:35;;;;;;;11.07;6.90;;;;;;;-1.68;100.00;95849.41;10412895;28;20209;-78
2022/11/20 11:41:36;;;;;;;10.83;5.87;;;;;;;-1.30;100.00;95822.88;10413122;28;20639;-78
2022/11/20 11:46:36;;;;;;;9.93;5.77;;;;;;;-1.31;100.00;95808.38;10411820;28;20769;-78
2022/11/20 11:52:03;;;;;;;9.57;5.63;;;;;;;-1.24;100.00;95806.22;10395003;28;20188;-78
2022/11/20 11:57:22;;;;;;;30.73;16.57;;;;;;;-0.52;100.00;95805.47;10412709;28;20704;-78
2022/11/20 12:02:31;;;;;;;7.87;5.77;;;;;;;-0.66;100.00;95793.59;10412259;28;20199;-79
2022/11/20 12:08:10;;;;;;;9.97;6.53;;;;;;;-0.87;100.00;95780.50;10411697;28;20184;-78
2022/11/20 12:19:40;;;;;;;11.50;6.60;;;;;;;-0.59;100.00;95789.63;10399754;28;20311;-77
2022/11/20 12:25:11;;;;;;;14.80;8.00;;;;;;;-0.64;100.00;95781.44;10406144;28;20204;-77
2022/11/20 12:30:16;;;;;;;14.57;7.87;;;;;;;-0.32;100.00;95782.56;10408094;28;20818;-77
2022/11/20 12:35:35;;;;;;;18.03;9.93;;;;;;;-0.35;100.00;95783.66;10437035;28;20272;-77
2022/11/20 12:40:57;;;;;;;17.47;9.07;;;;;;;-0.58;100.00;95777.59;10415045;28;20738;-77
2022/11/20 12:46:16;;;;;;;14.53;9.27;;;;;;;-0.57;100.00;95776.66;10454833;28;20187;-77
2022/11/20 12:51:39;;;;;;;15.33;8.57;;;;;;;-0.76;100.00;95783.13;10438204;28;20192;-77
2022/11/20 12:56:48;;;;;;;19.10;11.67;;;;;;;-0.89;100.00;95784.91;10408364;28;20223;-78
2022/11/20 13:01:55;;;;;;;18.83;9.77;;;;;;;-1.04;100.00;95786.84;10411509;28;20660;-78
2022/11/20 13:06:56;;;;;;;15.67;9.10;;;;;;;-0.88;100.00;95778.84;10415356;28;20242;-77
2022/11/20 13:12:16;;;;;;;19.27;10.40;;;;;;;-1.11;100.00;95781.28;10443159;28;20200;-78
2022/11/20 13:17:27;;;;;;;19.10;10.20;;;;;;;-0.72;100.00;95781.97;10461767;28;20228;-77
2022/11/20 13:22:29;;;;;;;21.13;10.80;;;;;;;-0.78;100.00;95785.00;10423669;28;20191;-78
2022/11/20 13:27:30;;;;;;;24.23;12.27;;;;;;;-0.76;100.00;95777.97;10407167;28;20247;-78
2022/11/20 13:32:32;;;;;;;25.20;11.07;;;;;;;-0.47;100.00;95782.78;10406311;28;20238;-78
2022/11/20 13:37:34;;;;;;;27.97;12.77;;;;;;;-0.80;100.00;95778.31;10408283;28;20216;-79
2022/11/20 13:42:38;;;;;;;24.20;12.00;;;;;;;-0.79;100.00;95770.47;10411763;28;20199;-77
2022/11/20 13:47:47;;;;;;;29.07;13.47;;;;;;;-1.05;100.00;95772.34;10411664;28;20195;-78
2022/11/20 13:53:05;;;;;;;36.93;18.17;;;;;;;-1.26;100.00;95772.94;10409180;28;20196;-79
2022/11/20 13:58:28;;;;;;;27.43;13.10;;;;;;;-0.98;100.00;95777.84;10415272;28;20216;-77
2022/11/20 14:03:33;;;;;;;30.93;14.47;;;;;;;-1.23;100.00;95778.78;10403784;28;20619;-78
2022/11/20 14:08:39;;;;;;;30.50;14.00;;;;;;;-1.11;100.00;95785.63;10408586;28;20192;-77
2022/11/20 14:13:39;;;;;;;34.83;15.30;;;;;;;-1.21;100.00;95782.88;10384799;28;20684;-78
2022/11/20 14:18:41;;;;;;;32.73;15.23;;;;;;;-1.37;100.00;95787.44;10369863;28;20225;-77
2022/11/20 14:23:41;;;;;;;29.30;13.30;;;;;;;-1.46;100.00;95789.69;10367447;28;20697;-79
2022/11/20 14:28:50;;;;;;;35.63;17.03;;;;;;;-1.59;100.00;95777.81;10370100;28;20209;-78
2022/11/20 14:33:53;;;;;;;39.63;17.80;;;;;;;-1.44;100.00;95784.47;10369294;28;20228;-78
2022/11/20 14:38:54;;;;;;;37.33;17.00;;;;;;;-1.43;100.00;95791.25;10369343;28;20579;-78
2022/11/20 14:43:56;;;;;;;24.87;12.87;;;;;;;-1.42;100.00;95789.50;10370991;28;20195;-78
2022/11/20 14:49:00;;;;;;;25.87;12.77;;;;;;;-1.34;100.00;95776.94;10372418;28;20280;-79
2022/11/20 14:54:11;;;;;;;18.90;10.53;;;;;;;-1.45;100.00;95770.00;10372162;28;20616;-76
2022/11/20 14:59:23;;;;;;;13.13;8.03;;;;;;;-1.65;100.00;95761.09;10404221;28;20223;-78
2022/11/20 15:04:23;;;;;;;13.13;8.27;;;;;;;-1.73;100.00;95758.22;10410826;28;20193;-79
2022/11/20 15:09:24;;;;;;;13.70;7.73;;;;;;;-1.81;100.00;95754.44;10435235;28;20192;-78
2022/11/20 15:14:25;;;;;;;15.53;9.63;;;;;;;-1.81;100.00;95762.13;10411373;28;20186;-79
2022/11/20 15:19:26;;;;;;;15.13;7.77;;;;;;;-1.77;100.00;95767.88;10392503;28;20240;-78
2022/11/20 15:24:27;;;;;;;13.73;8.97;;;;;;;-1.86;100.00;95761.59;10395135;28;20216;-79
2022/11/20 15:29:27;;;;;;;12.83;7.73;;;;;;;-1.88;100.00;95763.47;10412631;28;20232;-78
2022/11/20 15:34:28;;;;;;;14.73;8.80;;;;;;;-1.98;100.00;95770.13;10394663;28;20564;-77
2022/11/20 15:39:28;;;;;;;13.83;8.20;;;;;;;-2.00;100.00;95769.44;10412093;28;20223;-78
2022/11/20 15:44:29;;;;;;;15.47;8.60;;;;;;;-2.05;100.00;95766.31;10412008;28;20921;-79
2022/11/20 15:49:29;;;;;;;18.40;8.93;;;;;;;-1.98;100.00;95775.28;10393660;28;20614;-78
2022/11/20 15:54:29;;;;;;;14.47;9.07;;;;;;;-2.10;100.00;95768.38;10411782;28;20223;-78
2022/11/20 15:59:30;;;;;;;16.73;9.87;;;;;;;-2.17;100.00;95763.66;10395743;28;20229;-77
2022/11/20 16:04:31;;;;;;;16.47;9.90;;;;;;;-2.22;100.00;95765.72;10396043;28;20216;-78
2022/11/20 16:09:32;;;;;;;16.77;9.83;;;;;;;-2.29;100.00;95768.78;10412816;28;20195;-79
2022/11/20 16:19:51;;;;;;;22.43;13.00;;;;;;;-2.48;100.00;95766.59;10452067;28;20216;-77
2022/11/20 16:24:52;;;;;;;22.30;12.53;;;;;;;-2.49;100.00;95762.41;10453146;28;20192;-77
2022/11/20 16:29:53;;;;;;;24.73;12.03;;;;;;;-2.60;100.00;95766.47;10452185;28;20220;-77
2022/11/20 16:34:53;;;;;;;19.33;11.93;;;;;;;-2.64;100.00;95772.72;10428711;28;20192;-78
2022/11/20 16:39:53;;;;;;;19.97;11.20;;;;;;;-2.60;100.00;95778.50;10423320;28;20239;-78
2022/11/20 16:44:54;;;;;;;20.07;11.43;;;;;;;-2.65;100.00;95780.50;10450598;28;20191;-78
2022/11/20 16:49:54;;;;;;;17.47;8.00;;;;;;;-2.68;100.00;95771.25;10434907;28;20196;-78
2022/11/20 16:54:54;;;;;;;16.03;8.40;;;;;;;-2.69;100.00;95767.06;10391107;28;20195;-77
2022/11/20 16:59:55;;;;;;;14.60;9.03;;;;;;;-2.80;100.00;95766.91;10412315;28;20219;-77
2022/11/20 17:04:56;;;;;;;16.40;9.87;;;;;;;-2.80;100.00;95766.91;10436963;28;20230;-78
2022/11/20 17:09:56;;;;;;;15.93;8.73;;;;;;;-2.82;100.00;95771.34;10411615;28;20188;-76
2022/11/20 17:14:57;;;;;;;19.87;11.30;;;;;;;-2.88;100.00;95763.13;10404094;28;20652;-78
2022/11/20 17:19:57;;;;;;;17.87;11.00;;;;;;;-2.85;100.00;95756.97;10422206;28;20224;-77
2022/11/20 17:24:58;;;;;;;21.73;11.67;;;;;;;-2.93;100.00;95752.31;10403467;28;20298;-77
2022/11/20 17:29:58;;;;;;;34.87;19.10;;;;;;;-2.91;100.00;95752.22;10432188;28;20235;-77
2022/11/20 17:34:59;;;;;;;22.10;12.30;;;;;;;-2.90;100.00;95751.31;10455757;28;20282;-77
2022/11/20 17:39:59;;;;;;;18.27;10.43;;;;;;;-3.04;100.00;95739.38;10462742;28;20706;-78
2022/11/20 17:45:00;;;;;;;15.93;7.87;;;;;;;-3.02;100.00;95734.97;10462804;28;20191;-77
2022/11/20 17:50:00;;;;;;;21.67;12.03;;;;;;;-3.13;100.00;95742.53;10413388;28;20197;-77
2022/11/20 17:55:00;;;;;;;24.57;14.43;;;;;;;-3.17;100.00;95741.06;10380288;28;20189;-78
2022/11/20 18:00:01;;;;;;;28.50;14.87;;;;;;;-3.29;100.00;95738.38;10392087;28;20208;-78
2022/11/20 18:05:01;;;;;;;21.13;12.03;;;;;;;-3.39;100.00;95729.59;10419655;28;20723;-78
2022/11/20 18:10:01;;;;;;;25.30;12.70;;;;;;;-3.42;100.00;95715.25;10407141;28;20247;-78
2022/11/20 18:15:02;;;;;;;25.20;14.90;;;;;;;-3.48;100.00;95719.94;10427486;28;20199;-78
2022/11/20 18:20:03;;;;;;;28.77;14.80;;;;;;;-3.67;100.00;95720.25;10425081;28;20711;-78
2022/11/20 18:25:03;;;;;;;26.63;14.53;;;;;;;-3.66;100.00;95717.59;10418202;28;20203;-78
2022/11/20 18:30:04;;;;;;;26.10;15.50;;;;;;;-3.80;100.00;95722.72;10403544;28;20558;-78
2022/11/20 18:35:05;;;;;;;20.60;12.37;;;;;;;-3.77;100.00;95728.50;10408798;28;20522;-78
2022/11/20 18:40:06;;;;;;;19.57;11.97;;;;;;;-3.99;100.00;95723.03;10423628;28;20223;-78
2022/11/20 18:45:07;;;;;;;15.03;9.17;;;;;;;-4.06;100.00;95725.13;10413251;28;20200;-78
2022/11/20 18:50:08;;;;;;;18.00;10.50;;;;;;;-4.07;100.00;95717.53;10412530;28;20218;-78
2022/11/20 18:55:08;;;;;;;16.40;10.43;;;;;;;-4.20;100.00;95725.13;10412481;28;20192;-78
2022/11/20 19:00:09;;;;;;;22.47;10.73;;;;;;;-4.27;100.00;95722.13;10412705;28;20278;-79
2022/11/20 19:05:10;;;;;;;54.03;23.27;;;;;;;-4.35;100.00;95717.44;10405665;28;20283;-78
2022/11/20 19:10:11;;;;;;;16.00;9.50;;;;;;;-4.35;100.00;95703.81;10412540;28;20757;-78
2022/11/20 19:15:11;;;;;;;52.10;20.60;;;;;;;-4.23;100.00;95698.00;10411126;28;20227;-78
2022/11/20 19:20:12;;;;;;;116.50;34.60;;;;;;;-4.40;100.00;95698.97;10411833;28;20220;-78
2022/11/20 19:25:12;;;;;;;156.83;46.57;;;;;;;-4.36;100.00;95697.09;10411443;28;20201;-79
2022/11/20 19:30:13;;;;;;;25.67;12.97;;;;;;;-4.35;100.00;95701.28;10411138;28;20231;-78
2022/11/20 19:35:14;;;;;;;18.57;10.73;;;;;;;-4.31;100.00;95692.53;10409881;28;20269;-78
2022/11/20 19:40:14;;;;;;;22.50;12.87;;;;;;;-4.41;100.00;95682.03;10411100;28;20243;-78
2022/11/20 19:45:14;;;;;;;30.00;13.67;;;;;;;-4.26;100.00;95685.38;10407052;28;20200;-79
2022/11/20 19:50:15;;;;;;;34.83;18.63;;;;;;;-4.13;100.00;95681.19;10410953;28;20191;-78
2022/11/20 19:55:16;;;;;;;27.20;14.33;;;;;;;-4.01;100.00;95679.63;10409415;28;20191;-78
2022/11/20 20:00:16;;;;;;;22.43;12.17;;;;;;;-3.96;100.00;95676.81;10414172;28;20216;-78
2022/11/20 20:05:17;;;;;;;56.03;23.33;;;;;;;-3.77;100.00;95663.69;10394145;28;20334;-78
2022/11/20 20:10:19;;;;;;;41.57;19.03;;;;;;;-3.73;100.00;95660.03;10407060;28;20272;-78
2022/11/20 20:15:19;;;;;;;46.53;21.00;;;;;;;-3.80;100.00;95654.50;10408611;28;20196;-78
2022/11/20 20:20:20;;;;;;;25.83;14.20;;;;;;;-3.67;100.00;95643.50;10406679;28;20228;-78
2022/11/20 20:25:20;;;;;;;41.03;19.27;;;;;;;-3.72;100.00;95635.25;10422088;28;20208;-78
2022/11/20 20:30:20;;;;;;;18.50;11.50;;;;;;;-3.54;100.00;95648.66;10419080;28;20223;-78
2022/11/20 20:35:21;;;;;;;20.20;10.77;;;;;;;-3.52;100.00;95639.13;10412244;28;20187;-79
2022/11/20 20:40:21;;;;;;;19.67;10.80;;;;;;;-3.53;100.00;95642.63;10409143;28;20246;-78
2022/11/20 20:45:22;;;;;;;16.10;8.23;;;;;;;-3.50;100.00;95624.50;10448930;28;20191;-78
2022/11/20 20:50:22;;;;;;;20.43;9.57;;;;;;;-3.54;100.00;95623.03;10449928;28;20649;-79
2022/11/20 20:55:23;;;;;;;18.37;10.00;;;;;;;-3.71;100.00;95614.69;10446178;28;20649;-79
2022/11/20 21:00:23;;;;;;;15.67;10.13;;;;;;;-3.70;100.00;95607.84;10432227;28;20213;-78
2022/11/20 21:05:23;;;;;;;13.87;8.87;;;;;;;-3.67;100.00;95595.66;10392929;28;20653;-79
2022/11/20 21:10:24;;;;;;;16.80;8.67;;;;;;;-3.68;100.00;95588.09;10390976;28;20549;-78
2022/11/20 21:15:24;;;;;;;12.30;7.17;;;;;;;-3.46;100.00;95567.06;10408525;28;20192;-78
2022/11/20 21:26:02;;;;;;;7.47;4.47;;;;;;;-2.89;100.00;95540.28;10369134;28;20209;-78
2022/11/20 21:31:08;;;;;;;11.43;6.80;;;;;;;-2.60;100.00;95520.38;10408811;28;20233;-79
2022/11/20 21:36:11;;;;;;;11.37;6.37;;;;;;;-2.51;100.00;95504.34;10408606;28;20223;-79
2022/11/20 21:41:13;;;;;;;10.67;7.60;;;;;;;-2.49;100.00;95491.41;10391441;28;20231;-79
2022/11/20 21:46:15;;;;;;;14.93;7.87;;;;;;;-2.52;100.00;95477.06;10408654;28;20284;-79
2022/11/20 21:51:17;;;;;;;11.67;7.30;;;;;;;-2.20;100.00;95473.97;10408912;28;20526;-79
2022/11/20 21:56:19;;;;;;;13.57;8.60;;;;;;;-2.01;100.00;95470.91;10391761;28;20185;-78
2022/11/20 22:01:22;;;;;;;10.47;6.27;;;;;;;-1.76;100.00;95470.88;10416466;28;20216;-79
2022/11/20 22:06:31;;;;;;;10.47;6.20;;;;;;;-1.48;100.00;95470.50;10416202;28;20185;-79
2022/11/20 22:11:31;;;;;;;12.00;6.37;;;;;;;-1.45;100.00;95466.91;10398924;28;20596;-79
2022/11/20 22:16:33;;;;;;;9.83;6.00;;;;;;;-1.22;100.00;95461.81;10414894;28;20177;-79
2022/11/20 22:21:34;;;;;;;10.27;5.57;;;;;;;-1.21;100.00;95451.41;10415826;28;20223;-79
2022/11/20 22:26:35;;;;;;;11.67;7.27;;;;;;;-1.51;100.00;95442.50;10414943;28;20193;-79
2022/11/20 22:31:35;;;;;;;11.03;7.47;;;;;;;-1.71;100.00;95420.84;10414733;28;20626;-79
2022/11/20 22:36:36;;;;;;;14.83;7.10;;;;;;;-1.88;100.00;95414.41;10414973;28;21007;-79
2022/11/20 22:41:37;;;;;;;11.70;6.70;;;;;;;-1.74;100.00;95422.84;10396661;28;20230;-79
2022/11/20 22:46:37;;;;;;;12.00;6.63;;;;;;;-1.70;100.00;95426.78;10414860;28;20199;-79
2022/11/20 22:51:40;;;;;;;13.03;7.60;;;;;;;-1.77;100.00;95426.44;10396950;28;20195;-79
2022/11/20 22:56:40;;;;;;;13.37;7.87;;;;;;;-1.86;100.00;95427.94;10396421;28;20275;-79
2022/11/20 23:01:41;;;;;;;13.27;8.33;;;;;;;-1.89;100.00;95423.00;10414317;28;20227;-80
2022/11/20 23:06:41;;;;;;;13.33;8.37;;;;;;;-1.91;100.00;95416.38;10413264;28;20658;-80
2022/11/20 23:11:41;;;;;;;14.13;8.53;;;;;;;-1.90;100.00;95411.13;10396062;28;20189;-79
2022/11/20 23:16:42;;;;;;;13.97;8.40;;;;;;;-1.89;100.00;95411.94;10395409;28;20195;-79
2022/11/20 23:21:42;;;;;;;14.40;9.23;;;;;;;-1.92;100.00;95402.72;10413589;28;20573;-79
2022/11/20 23:26:44;;;;;;;14.83;9.40;;;;;;;-1.97;100.00;95397.09;10413208;28;20185;-79